Time;durP1;ratioP1;P1;durP2;ratioP2;P2;SDS_P1;SDS_P2;PMS_P1;PMS_P2;Temp;Humidity;BMP_temperature;BMP_pressure;BME280_temperature;BME280_humidity;BME280_pressure;Samples;Min_cycle;Max_cycle;Signal;HPM_P1;HPM_P2
2023/08/26 00:00:19;;;;;;;4.55;2.47;;;23.10;99.90;;;;;;5011212;28;20214;-74
2023/08/26 00:02:45;;;;;;;3.45;2.35;;;23.10;99.90;;;;;;5009134;28;20255;-73
2023/08/26 00:05:10;;;;;;;3.58;2.72;;;23.00;99.90;;;;;;5006632;28;20220;-73
2023/08/26 00:07:36;;;;;;;3.72;2.30;;;22.90;99.90;;;;;;5010368;28;20216;-74
2023/08/26 00:10:02;;;;;;;3.13;2.22;;;22.80;99.90;;;;;;5009560;28;20220;-73
2023/08/26 00:12:27;;;;;;;2.85;1.88;;;22.70;99.90;;;;;;5004651;28;20208;-74
2023/08/26 00:14:53;;;;;;;8.88;5.93;;;22.60;99.90;;;;;;5001933;28;20205;-73
2023/08/26 00:17:19;;;;;;;37.70;25.73;;;22.70;99.90;;;;;;4999743;28;20275;-75
2023/08/26 00:19:44;;;;;;;7.32;4.40;;;22.70;99.90;;;;;;5013793;28;20220;-71
2023/08/26 00:22:11;;;;;;;4.80;3.40;;;22.80;99.90;;;;;;5013606;28;20177;-74
2023/08/26 00:24:36;;;;;;;8.85;5.70;;;22.80;99.90;;;;;;5018757;28;20192;-73
2023/08/26 00:27:03;;;;;;;3.75;2.40;;;22.80;99.90;;;;;;5011302;28;20576;-73
2023/08/26 00:29:29;;;;;;;3.83;2.58;;;22.80;99.90;;;;;;5016277;28;20646;-74
2023/08/26 00:31:54;;;;;;;4.25;2.20;;;22.80;99.90;;;;;;5009661;28;20333;-74
2023/08/26 00:34:20;;;;;;;2.97;2.20;;;22.70;99.90;;;;;;5012279;28;20580;-73
2023/08/26 00:36:46;;;;;;;3.10;1.98;;;22.60;99.90;;;;;;5014532;28;20656;-73
2023/08/26 00:39:11;;;;;;;2.97;2.40;;;22.60;99.90;;;;;;5011125;28;20608;-74
2023/08/26 00:41:37;;;;;;;3.05;2.30;;;22.70;99.90;;;;;;5012810;28;20657;-74
2023/08/26 00:44:03;;;;;;;4.47;2.22;;;22.80;99.90;;;;;;5006949;28;20747;-74
2023/08/26 00:46:29;;;;;;;2.50;2.00;;;22.70;99.90;;;;;;5009580;28;20215;-74
2023/08/26 00:48:55;;;;;;;3.08;1.95;;;22.70;99.90;;;;;;5006018;28;20200;-74
2023/08/26 00:51:21;;;;;;;4.72;2.22;;;22.70;99.90;;;;;;5008486;28;20201;-73
2023/08/26 00:53:48;;;;;;;3.65;2.33;;;22.70;99.90;;;;;;5004905;28;20282;-73
2023/08/26 00:56:13;;;;;;;2.67;1.98;;;22.70;99.90;;;;;;5010799;28;20213;-74
2023/08/26 00:58:40;;;;;;;5.85;1.83;;;22.80;99.90;;;;;;5014675;28;20725;-74
2023/08/26 01:01:05;;;;;;;2.17;1.98;;;22.80;99.90;;;;;;5019199;28;20185;-73
2023/08/26 01:03:32;;;;;;;3.40;2.00;;;22.70;99.90;;;;;;5020301;28;20246;-74
2023/08/26 01:05:58;;;;;;;2.65;2.00;;;22.60;99.90;;;;;;5016396;28;20219;-74
2023/08/26 01:08:24;;;;;;;3.20;2.00;;;22.50;99.90;;;;;;5012647;28;20210;-74
2023/08/26 01:11:11;;;;;;;2.08;1.88;;;22.40;99.90;;;;;;5013993;28;20201;-74
2023/08/26 01:13:57;;;;;;;2.50;2.03;;;22.40;99.90;;;;;;5008912;28;20588;-73
2023/08/26 01:16:23;;;;;;;3.53;2.00;;;22.30;99.90;;;;;;5010127;28;20214;-74
2023/08/26 01:18:50;;;;;;;2.72;2.00;;;22.30;99.90;;;;;;5011000;28;20220;-74
2023/08/26 01:21:19;;;;;;;1.67;1.50;;;22.30;99.90;;;;;;5010403;28;20212;-74
2023/08/26 01:23:46;;;;;;;3.28;2.42;;;22.40;99.90;;;;;;5006178;28;20201;-73
2023/08/26 01:26:12;;;;;;;5.43;2.30;;;22.40;99.90;;;;;;5003096;28;20209;-72
2023/08/26 01:28:38;;;;;;;3.65;2.47;;;22.30;99.90;;;;;;5009876;28;20231;-74
2023/08/26 01:31:12;;;;;;;2.17;1.98;;;22.40;99.90;;;;;;5003158;28;20261;-73
2023/08/26 01:33:49;;;;;;;5.90;2.70;;;22.50;99.90;;;;;;5015791;28;20211;-74
2023/08/26 01:36:20;;;;;;;3.50;1.98;;;22.50;99.90;;;;;;5008438;28;20205;-73
2023/08/26 01:38:46;;;;;;;4.10;2.25;;;22.40;99.90;;;;;;5017691;28;20208;-73
2023/08/26 01:41:17;;;;;;;5.95;2.33;;;22.30;99.90;;;;;;5014506;28;20288;-73
2023/08/26 01:43:43;;;;;;;5.47;2.47;;;22.30;99.90;;;;;;5014819;28;20199;-73
2023/08/26 01:46:09;;;;;;;5.78;2.15;;;22.20;99.90;;;;;;5032681;28;20223;-74
2023/08/26 01:48:34;;;;;;;2.10;1.90;;;22.10;99.90;;;;;;5010411;28;20176;-73
2023/08/26 01:51:00;;;;;;;4.47;1.70;;;22.00;99.90;;;;;;5027486;28;20211;-73
2023/08/26 01:53:26;;;;;;;2.88;2.20;;;21.60;99.90;;;;;;5017828;28;20218;-74
2023/08/26 01:55:51;;;;;;;3.60;2.13;;;21.60;99.90;;;;;;5015617;28;20766;-73
2023/08/26 01:58:17;;;;;;;2.35;1.98;;;21.50;99.90;;;;;;5024803;28;20185;-71
2023/08/26 02:00:42;;;;;;;2.90;2.00;;;21.50;99.90;;;;;;5009146;28;20184;-73
2023/08/26 02:03:08;;;;;;;7.20;1.90;;;21.50;99.90;;;;;;5020266;28;20310;-74
2023/08/26 02:05:33;;;;;;;2.78;2.25;;;21.50;99.90;;;;;;5012680;28;20272;-74
2023/08/26 02:07:59;;;;;;;4.82;2.78;;;21.40;99.90;;;;;;5009183;28;20205;-73
2023/08/26 02:10:25;;;;;;;2.55;1.98;;;21.50;99.90;;;;;;5024193;28;20200;-73
2023/08/26 02:12:50;;;;;;;3.45;2.20;;;21.50;99.90;;;;;;5013075;28;20197;-74
2023/08/26 02:15:16;;;;;;;3.45;2.20;;;21.50;99.90;;;;;;5030567;28;20212;-71
2023/08/26 02:17:41;;;;;;;4.55;2.17;;;21.50;99.90;;;;;;5026091;28;20253;-73
2023/08/26 02:20:07;;;;;;;4.43;2.28;;;21.40;99.90;;;;;;5020341;28;20219;-73
2023/08/26 02:22:33;;;;;;;3.47;1.90;;;21.50;99.90;;;;;;5032748;28;20210;-74
2023/08/26 02:24:59;;;;;;;5.15;2.25;;;21.30;99.90;;;;;;5013132;28;20181;-74
2023/08/26 02:27:24;;;;;;;2.78;2.00;;;21.30;99.90;;;;;;5015007;28;20204;-73
2023/08/26 02:29:50;;;;;;;3.08;2.30;;;21.40;99.90;;;;;;5009800;28;20213;-73
2023/08/26 02:32:16;;;;;;;4.07;2.13;;;21.40;99.90;;;;;;5005554;28;20217;-71
2023/08/26 02:34:41;;;;;;;4.47;2.35;;;21.30;99.90;;;;;;5006379;28;20209;-75
2023/08/26 02:37:07;;;;;;;2.88;2.47;;;21.30;99.90;;;;;;5003880;28;20652;-73
2023/08/26 02:39:32;;;;;;;4.70;2.50;;;21.40;99.90;;;;;;5003852;28;20214;-73
2023/08/26 02:41:58;;;;;;;3.70;2.05;;;21.30;99.90;;;;;;5002939;28;20208;-74
2023/08/26 02:44:24;;;;;;;4.50;2.53;;;21.20;99.90;;;;;;5000790;28;20219;-73
2023/08/26 02:46:49;;;;;;;3.97;2.67;;;21.20;99.90;;;;;;5003130;28;20591;-74
2023/08/26 02:49:15;;;;;;;3.50;2.10;;;21.10;99.90;;;;;;5010118;28;20205;-73
2023/08/26 02:51:40;;;;;;;2.58;2.10;;;21.10;99.90;;;;;;5012423;28;20655;-74
2023/08/26 02:54:06;;;;;;;3.85;2.47;;;21.10;99.90;;;;;;5009494;28;20213;-71
2023/08/26 02:56:32;;;;;;;5.05;2.33;;;21.00;99.90;;;;;;5007394;28;20201;-73
2023/08/26 02:58:57;;;;;;;4.05;2.38;;;21.20;99.90;;;;;;5006958;28;20232;-73
2023/08/26 03:01:24;;;;;;;5.32;2.45;;;21.20;99.90;;;;;;5006096;28;20280;-74
2023/08/26 03:03:50;;;;;;;3.58;2.60;;;21.30;99.90;;;;;;5011971;28;20180;-74
2023/08/26 03:06:15;;;;;;;3.50;2.22;;;21.30;99.90;;;;;;5006247;28;20213;-74
2023/08/26 03:08:41;;;;;;;5.35;2.60;;;21.30;99.90;;;;;;5004800;28;20252;-75
2023/08/26 03:11:37;;;;;;;3.47;2.30;;;21.30;99.90;;;;;;5005659;28;20228;-73
2023/08/26 03:14:03;;;;;;;4.15;2.20;;;21.40;99.90;;;;;;5005101;28;20236;-74
2023/08/26 03:16:29;;;;;;;5.05;2.60;;;21.40;99.90;;;;;;5001707;28;20888;-74
2023/08/26 03:18:54;;;;;;;2.75;2.25;;;21.20;99.90;;;;;;5003711;28;20802;-74
2023/08/26 03:21:20;;;;;;;3.70;2.35;;;21.20;99.90;;;;;;4999381;28;20209;-74
2023/08/26 03:23:45;;;;;;;3.65;2.35;;;21.40;99.90;;;;;;5005078;28;20212;-72
2023/08/26 03:26:11;;;;;;;3.47;2.00;;;21.50;99.90;;;;;;5014296;28;20213;-73
2023/08/26 03:28:37;;;;;;;3.58;2.30;;;21.50;99.90;;;;;;5009646;28;20212;-73
2023/08/26 03:31:05;;;;;;;5.93;2.63;;;21.40;99.90;;;;;;5016030;28;20173;-73
2023/08/26 03:33:31;;;;;;;3.17;2.40;;;21.30;99.90;;;;;;5006805;28;20657;-73
2023/08/26 03:35:57;;;;;;;3.55;2.28;;;21.10;99.90;;;;;;5012667;28;20208;-74
2023/08/26 03:38:22;;;;;;;5.22;2.92;;;21.10;99.90;;;;;;5007712;28;20208;-72
2023/08/26 03:40:48;;;;;;;5.03;3.00;;;21.00;99.90;;;;;;5004272;28;20216;-72
2023/08/26 03:43:14;;;;;;;5.93;3.00;;;20.90;99.90;;;;;;5007012;28;20192;-72
2023/08/26 03:45:39;;;;;;;3.28;2.38;;;20.90;99.90;;;;;;5004645;28;20653;-73
2023/08/26 03:48:05;;;;;;;3.88;2.97;;;20.90;99.90;;;;;;5005906;28;20209;-72
2023/08/26 03:50:31;;;;;;;3.40;2.90;;;20.90;99.90;;;;;;5001667;28;20218;-72
2023/08/26 03:52:56;;;;;;;4.90;2.90;;;20.80;99.90;;;;;;5002568;28;20713;-72
2023/08/26 03:55:22;;;;;;;5.30;3.03;;;20.80;99.90;;;;;;4998774;28;20326;-73
2023/08/26 03:57:47;;;;;;;5.25;2.70;;;20.90;99.90;;;;;;5002788;28;20252;-72
2023/08/26 04:00:14;;;;;;;4.10;2.58;;;21.00;99.90;;;;;;5002537;28;20209;-72
2023/08/26 04:02:40;;;;;;;4.63;2.72;;;21.00;99.90;;;;;;5012746;28;20699;-70
2023/08/26 04:05:06;;;;;;;8.07;2.70;;;21.00;99.90;;;;;;5012316;28;20215;-72
2023/08/26 04:07:32;;;;;;;4.22;2.45;;;20.90;99.90;;;;;;5009412;28;20208;-72
2023/08/26 04:09:58;;;;;;;4.47;3.00;;;20.90;99.90;;;;;;5010339;28;20216;-73
2023/08/26 04:12:23;;;;;;;3.65;2.67;;;21.00;99.90;;;;;;5014890;28;20217;-72
2023/08/26 04:14:49;;;;;;;6.85;3.67;;;20.70;99.90;;;;;;5010068;28;20291;-73
2023/08/26 04:17:14;;;;;;;3.97;3.00;;;20.80;99.90;;;;;;5010568;28;20209;-73
2023/08/26 04:19:40;;;;;;;5.53;3.47;;;20.60;99.90;;;;;;5007712;28;20232;-72
2023/08/26 04:22:07;;;;;;;5.65;3.72;;;20.80;99.90;;;;;;5009421;28;20405;-73
2023/08/26 04:24:33;;;;;;;4.72;2.95;;;20.90;99.90;;;;;;5007383;28;20682;-73
2023/08/26 04:26:59;;;;;;;5.18;3.13;;;21.00;99.90;;;;;;5008937;28;20896;-72
2023/08/26 04:29:24;;;;;;;4.47;2.92;;;21.00;99.90;;;;;;5002088;28;20226;-73
2023/08/26 04:31:50;;;;;;;9.68;3.55;;;21.10;99.90;;;;;;5005717;28;20251;-72
2023/08/26 04:34:15;;;;;;;6.32;3.22;;;21.30;99.90;;;;;;5003331;28;20218;-73
2023/08/26 04:36:41;;;;;;;4.88;3.03;;;21.30;99.90;;;;;;5002304;28;20177;-72
2023/08/26 04:39:11;;;;;;;6.47;3.65;;;21.40;99.90;;;;;;5004242;28;20242;-73
2023/08/26 04:41:40;;;;;;;6.75;3.22;;;21.40;99.90;;;;;;5005606;28;20733;-72
2023/08/26 04:44:07;;;;;;;7.38;3.15;;;21.30;99.90;;;;;;5009991;28;20702;-73
2023/08/26 04:46:33;;;;;;;6.75;3.35;;;21.30;99.90;;;;;;5006259;28;20582;-72
2023/08/26 04:48:59;;;;;;;4.40;3.53;;;21.40;99.90;;;;;;5005850;28;20194;-73
2023/08/26 04:51:24;;;;;;;5.18;3.45;;;21.30;99.90;;;;;;5008124;28;20201;-73
2023/08/26 04:53:50;;;;;;;5.40;3.17;;;21.50;99.90;;;;;;5006164;28;20703;-72
2023/08/26 04:56:15;;;;;;;7.05;3.90;;;21.50;99.90;;;;;;5008905;28;20216;-73
2023/08/26 04:58:41;;;;;;;5.57;3.33;;;21.50;99.90;;;;;;5004323;28;20228;-73
2023/08/26 05:01:07;;;;;;;5.88;3.83;;;21.50;99.90;;;;;;5008710;28;20188;-73
2023/08/26 05:03:32;;;;;;;3.88;3.30;;;21.50;99.90;;;;;;5004382;28;20297;-72
2023/08/26 05:05:58;;;;;;;5.65;3.25;;;21.60;99.90;;;;;;5006520;28;20205;-73
2023/08/26 05:08:23;;;;;;;4.25;3.08;;;21.50;99.90;;;;;;5001440;28;20209;-72
2023/08/26 05:10:49;;;;;;;5.72;3.58;;;21.60;99.90;;;;;;5005049;28;20299;-73
2023/08/26 05:13:15;;;;;;;6.20;3.60;;;21.60;99.90;;;;;;5006133;28;20679;-72
2023/08/26 05:15:40;;;;;;;5.18;3.35;;;21.60;99.90;;;;;;5002975;28;20206;-73
2023/08/26 05:18:06;;;;;;;8.50;3.75;;;21.60;99.90;;;;;;5004289;28;20220;-72
2023/08/26 05:20:32;;;;;;;5.32;3.30;;;21.70;99.90;;;;;;5010965;28;20225;-73
2023/08/26 05:22:58;;;;;;;4.70;3.80;;;21.60;99.90;;;;;;5007307;28;20634;-73
2023/08/26 05:25:24;;;;;;;7.97;3.10;;;21.70;99.90;;;;;;5004313;28;20563;-73
2023/08/26 05:27:49;;;;;;;4.15;3.47;;;21.70;99.90;;;;;;5006716;28;20178;-73
2023/08/26 05:30:15;;;;;;;4.20;3.80;;;21.70;99.90;;;;;;5008438;28;20220;-73
2023/08/26 05:32:40;;;;;;;5.55;3.63;;;21.70;99.90;;;;;;5005805;28;20248;-73
2023/08/26 05:35:06;;;;;;;5.30;3.45;;;21.70;99.90;;;;;;5010530;28;20213;-73
2023/08/26 05:37:32;;;;;;;4.47;3.42;;;21.80;99.90;;;;;;5005822;28;20683;-71
2023/08/26 05:39:57;;;;;;;5.13;3.50;;;21.90;99.90;;;;;;5009745;28;20761;-73
2023/08/26 05:42:23;;;;;;;5.63;3.78;;;21.80;99.90;;;;;;5005533;28;20271;-74
2023/08/26 05:44:48;;;;;;;8.57;4.22;;;21.80;99.90;;;;;;5004156;28;20205;-74
2023/08/26 05:47:14;;;;;;;5.75;4.28;;;21.80;99.90;;;;;;5005354;28;20301;-70
2023/08/26 05:49:40;;;;;;;9.80;4.40;;;21.90;99.90;;;;;;5000844;28;20673;-73
2023/08/26 05:52:05;;;;;;;5.70;3.70;;;21.80;99.90;;;;;;5004998;28;20284;-73
2023/08/26 05:54:31;;;;;;;5.88;4.00;;;21.90;99.90;;;;;;5000554;28;20709;-73
2023/08/26 05:56:57;;;;;;;6.75;4.13;;;21.90;99.90;;;;;;5004084;28;20262;-72
2023/08/26 05:59:22;;;;;;;5.60;3.83;;;22.00;99.90;;;;;;5011389;28;20262;-73
2023/08/26 06:01:48;;;;;;;6.75;4.22;;;22.10;99.90;;;;;;5010506;28;20214;-73
2023/08/26 06:04:13;;;;;;;5.07;4.03;;;22.10;99.90;;;;;;5010017;28;20207;-72
2023/08/26 06:06:39;;;;;;;5.80;4.15;;;22.20;99.90;;;;;;5007746;28;20256;-73
2023/08/26 06:09:05;;;;;;;5.88;4.38;;;22.10;99.90;;;;;;5009579;28;20205;-74
2023/08/26 06:11:31;;;;;;;5.03;4.15;;;22.20;99.90;;;;;;5008259;28;20209;-73
2023/08/26 06:13:58;;;;;;;6.15;4.20;;;22.30;99.90;;;;;;5008472;28;20780;-73
2023/08/26 06:16:23;;;;;;;4.80;3.92;;;22.30;99.90;;;;;;5003421;28;20189;-72
2023/08/26 06:18:49;;;;;;;5.82;4.05;;;22.30;99.90;;;;;;5006011;28;20220;-73
2023/08/26 06:21:15;;;;;;;5.70;4.00;;;22.30;99.90;;;;;;5006599;28;20695;-73
2023/08/26 06:23:41;;;;;;;6.65;4.57;;;22.20;99.90;;;;;;5003632;28;20213;-73
2023/08/26 06:26:07;;;;;;;7.65;4.57;;;22.10;99.90;;;;;;5004552;28;20233;-75
2023/08/26 06:28:32;;;;;;;7.68;4.88;;;21.80;99.90;;;;;;5004247;28;20611;-71
2023/08/26 06:30:59;;;;;;;5.15;4.20;;;22.00;99.90;;;;;;5010774;28;20601;-70
2023/08/26 06:33:26;;;;;;;5.53;4.47;;;22.20;99.90;;;;;;5000615;28;20276;-74
2023/08/26 06:35:51;;;;;;;8.20;4.75;;;22.20;99.90;;;;;;5002432;28;20252;-74
2023/08/26 06:38:17;;;;;;;5.60;4.53;;;22.20;99.90;;;;;;5007204;28;20209;-73
2023/08/26 06:40:42;;;;;;;6.70;4.50;;;22.30;99.90;;;;;;5010417;28;20734;-73
2023/08/26 06:43:08;;;;;;;6.03;4.35;;;22.30;99.90;;;;;;5006950;28;20186;-73
2023/08/26 06:45:34;;;;;;;6.13;4.60;;;22.30;99.90;;;;;;5008485;28;20288;-72
2023/08/26 06:48:00;;;;;;;6.57;4.78;;;22.30;99.90;;;;;;5008732;28;20213;-73
2023/08/26 06:50:25;;;;;;;6.22;5.38;;;22.30;99.90;;;;;;5008053;28;20257;-73
2023/08/26 06:52:51;;;;;;;7.72;5.32;;;22.10;99.90;;;;;;5003913;28;20286;-73
2023/08/26 06:55:17;;;;;;;7.50;5.07;;;22.10;99.90;;;;;;5006204;28;20200;-73
2023/08/26 06:57:46;;;;;;;5.63;4.65;;;22.20;99.90;;;;;;5003815;28;20188;-73
2023/08/26 07:00:13;;;;;;;6.68;4.60;;;22.20;99.90;;;;;;5003283;28;20223;-73
2023/08/26 07:02:39;;;;;;;6.97;5.40;;;22.20;99.90;;;;;;5001363;28;20206;-73
2023/08/26 07:05:05;;;;;;;6.85;5.18;;;22.20;99.90;;;;;;5009335;28;20212;-73
2023/08/26 07:07:30;;;;;;;5.07;4.63;;;22.10;99.90;;;;;;5000297;28;20214;-73
2023/08/26 07:09:56;;;;;;;9.75;5.38;;;22.20;99.90;;;;;;5004222;28;20738;-73
2023/08/26 07:12:22;;;;;;;8.60;6.05;;;22.50;99.90;;;;;;5000549;28;20247;-73
2023/08/26 07:14:47;;;;;;;5.55;4.60;;;22.30;99.90;;;;;;5000274;28;20579;-72
2023/08/26 07:17:16;;;;;;;6.13;5.53;;;22.20;99.90;;;;;;5013344;28;20210;-74
2023/08/26 07:19:42;;;;;;;7.78;4.80;;;22.10;99.90;;;;;;5012672;28;20227;-71
2023/08/26 07:22:08;;;;;;;7.35;5.05;;;22.20;99.90;;;;;;5019359;28;20176;-72
2023/08/26 07:24:34;;;;;;;5.57;4.38;;;22.60;99.90;;;;;;5008152;28;20205;-74
2023/08/26 07:26:59;;;;;;;9.27;6.40;;;22.60;99.90;;;;;;5011231;28;20236;-73
2023/08/26 07:29:25;;;;;;;8.52;5.03;;;22.80;99.90;;;;;;5010688;28;20270;-73
2023/08/26 07:31:51;;;;;;;9.93;7.63;;;23.20;99.90;;;;;;5008651;28;20210;-73
2023/08/26 07:34:16;;;;;;;6.68;5.97;;;23.40;99.90;;;;;;5011026;28;20647;-73
2023/08/26 07:36:42;;;;;;;10.27;6.32;;;23.30;99.90;;;;;;5004681;28;20182;-73
2023/08/26 07:39:08;;;;;;;5.28;4.72;;;23.40;99.90;;;;;;5010540;28;20290;-73
2023/08/26 07:41:35;;;;;;;8.75;5.90;;;23.00;99.90;;;;;;5003233;28;20251;-73
2023/08/26 07:44:00;;;;;;;7.15;5.57;;;23.00;99.90;;;;;;5006424;28;20608;-75
2023/08/26 07:46:26;;;;;;;10.25;5.22;;;23.00;99.90;;;;;;5007477;28;20193;-73
2023/08/26 07:48:52;;;;;;;6.07;5.25;;;22.90;99.90;;;;;;5008413;28;20197;-74
2023/08/26 07:51:18;;;;;;;10.77;7.75;;;22.80;99.90;;;;;;5004900;28;20213;-73
2023/08/26 07:53:44;;;;;;;9.00;5.88;;;22.80;99.90;;;;;;5005092;28;20240;-74
2023/08/26 07:56:10;;;;;;;10.50;6.82;;;22.60;99.90;;;;;;5005600;28;20209;-74
2023/08/26 07:58:35;;;;;;;11.65;7.72;;;22.70;99.90;;;;;;5011976;28;20648;-71
2023/08/26 08:01:01;;;;;;;8.65;6.05;;;22.70;99.90;;;;;;5010296;28;20189;-74
2023/08/26 08:03:27;;;;;;;12.02;7.68;;;22.80;99.90;;;;;;5012788;28;20274;-73
2023/08/26 08:05:53;;;;;;;7.20;6.45;;;22.80;99.90;;;;;;5011196;28;20692;-74
2023/08/26 08:08:18;;;;;;;9.73;5.97;;;23.00;99.90;;;;;;5008553;28;20215;-71
2023/08/26 08:10:44;;;;;;;9.52;5.90;;;22.90;99.90;;;;;;5009787;28;20585;-73
2023/08/26 08:13:10;;;;;;;8.52;7.40;;;23.00;99.90;;;;;;5012821;28;20304;-74
2023/08/26 08:15:35;;;;;;;25.80;18.38;;;23.10;99.90;;;;;;5007387;28;20268;-74
2023/08/26 08:18:02;;;;;;;10.35;8.10;;;23.30;99.90;;;;;;5009102;28;20201;-74
2023/08/26 08:20:30;;;;;;;8.43;7.10;;;23.20;99.90;;;;;;5007714;28;20213;-73
2023/08/26 08:22:56;;;;;;;6.55;5.57;;;23.20;99.90;;;;;;5007621;28;20205;-73
2023/08/26 08:25:22;;;;;;;6.97;5.70;;;23.20;99.90;;;;;;5006754;28;20578;-73
2023/08/26 08:27:48;;;;;;;8.15;6.40;;;23.10;99.90;;;;;;5004794;28;20760;-74
2023/08/26 08:30:14;;;;;;;8.85;6.15;;;23.10;99.90;;;;;;5008256;28;20213;-74
2023/08/26 08:32:40;;;;;;;10.00;7.07;;;23.10;99.90;;;;;;5001386;28;20213;-74
2023/08/26 08:35:06;;;;;;;7.53;6.68;;;22.90;99.90;;;;;;5004187;28;20275;-73
2023/08/26 08:37:32;;;;;;;8.40;6.55;;;22.90;99.90;;;;;;5009623;28;20227;-73
2023/08/26 08:39:59;;;;;;;11.00;6.80;;;22.90;99.90;;;;;;5011446;28;20675;-73
2023/08/26 08:42:25;;;;;;;8.02;6.10;;;23.00;99.90;;;;;;5012330;28;20562;-74
2023/08/26 08:44:51;;;;;;;8.60;5.32;;;23.20;99.90;;;;;;5005850;28;20209;-74
2023/08/26 08:47:17;;;;;;;7.57;5.90;;;23.50;99.90;;;;;;5011240;28;20225;-73
2023/08/26 08:49:43;;;;;;;6.97;5.28;;;23.60;99.90;;;;;;5009193;28;20595;-74
2023/08/26 08:52:10;;;;;;;7.65;5.40;;;23.70;99.90;;;;;;5009894;28;20197;-72
2023/08/26 08:54:36;;;;;;;5.53;4.97;;;23.60;99.90;;;;;;5007955;28;20228;-73
2023/08/26 08:57:03;;;;;;;5.85;5.32;;;23.60;99.90;;;;;;5009749;28;20217;-73
2023/08/26 08:59:34;;;;;;;6.45;5.55;;;23.50;99.90;;;;;;5007265;28;20216;-74
2023/08/26 09:02:00;;;;;;;5.28;4.78;;;23.60;99.90;;;;;;5005993;28;20293;-73
2023/08/26 09:04:26;;;;;;;7.32;5.10;;;23.30;99.90;;;;;;5001905;28;20185;-73
2023/08/26 09:06:52;;;;;;;5.68;4.90;;;23.40;99.90;;;;;;5004956;28;20644;-74
2023/08/26 09:09:20;;;;;;;6.00;4.63;;;23.70;99.90;;;;;;5005109;28;20806;-74
2023/08/26 09:11:47;;;;;;;4.85;4.32;;;23.90;99.90;;;;;;5002315;28;20220;-72
2023/08/26 09:14:12;;;;;;;6.15;5.07;;;24.30;99.90;;;;;;5004106;28;20205;-71
2023/08/26 09:16:39;;;;;;;5.45;4.07;;;24.60;99.90;;;;;;5004694;28;20263;-69
2023/08/26 09:19:06;;;;;;;7.00;4.65;;;24.90;99.90;;;;;;5013318;28;20624;-74
2023/08/26 09:21:32;;;;;;;5.28;4.40;;;25.30;99.90;;;;;;5011114;28;20591;-72
2023/08/26 09:23:59;;;;;;;8.63;4.47;;;25.20;99.90;;;;;;5008680;28;20213;-73
2023/08/26 09:26:25;;;;;;;6.13;4.75;;;24.70;99.90;;;;;;5010634;28;20208;-72
2023/08/26 09:28:50;;;;;;;5.82;5.22;;;24.70;99.90;;;;;;5009455;28;20705;-72
2023/08/26 09:31:17;;;;;;;7.32;4.88;;;24.60;99.90;;;;;;5009675;28;20681;-71
2023/08/26 09:34:00;;;;;;;7.85;5.22;;;24.60;99.90;;;;;;5007281;28;20205;-70
2023/08/26 09:36:39;;;;;;;14.85;7.90;;;25.10;99.90;;;;;;5007672;28;20212;-72
2023/08/26 09:39:14;;;;;;;8.95;5.78;;;26.40;99.90;;;;;;5007818;28;20216;-69
2023/08/26 09:41:45;;;;;;;7.53;6.00;;;27.00;99.90;;;;;;5003983;28;20200;-73
2023/08/26 09:44:12;;;;;;;6.80;5.22;;;27.40;99.90;;;;;;5003911;28;20234;-70
2023/08/26 09:46:42;;;;;;;8.10;5.22;;;28.10;99.90;;;;;;5011488;28;20197;-72
2023/08/26 09:49:11;;;;;;;6.32;5.15;;;28.30;99.90;;;;;;5011631;28;20208;-71
2023/08/26 09:51:37;;;;;;;7.35;6.00;;;28.20;99.90;;;;;;5001336;28;20206;-71
2023/08/26 09:54:05;;;;;;;6.95;5.90;;;27.50;99.90;;;;;;5002171;28;20216;-70
2023/08/26 09:56:31;;;;;;;8.23;5.95;;;27.20;99.90;;;;;;5002410;28;20209;-71
2023/08/26 09:58:57;;;;;;;7.45;5.55;;;26.70;99.90;;;;;;5009048;28;20232;-71
2023/08/26 10:01:24;;;;;;;7.43;6.30;;;26.40;99.90;;;;;;5011050;28;20185;-69
2023/08/26 10:04:05;;;;;;;7.65;5.95;;;26.80;99.90;;;;;;5006261;28;20243;-72
2023/08/26 10:06:35;;;;;;;7.30;6.60;;;27.30;99.90;;;;;;4997477;28;20210;-70
2023/08/26 10:09:23;;;;;;;8.13;6.28;;;27.50;99.90;;;;;;5010608;28;20602;-71
2023/08/26 10:11:54;;;;;;;8.75;6.70;;;27.40;99.90;;;;;;5019288;28;20288;-70
2023/08/26 10:14:23;;;;;;;9.10;7.70;;;27.00;99.90;;;;;;5029815;28;20619;-69
2023/08/26 10:16:50;;;;;;;10.35;7.10;;;27.00;99.90;;;;;;5020546;28;20268;-72
2023/08/26 10:19:16;;;;;;;11.60;8.82;;;27.00;99.90;;;;;;5026444;28;20213;-71
2023/08/26 10:21:44;;;;;;;9.88;7.57;;;26.80;99.90;;;;;;5024137;28;20165;-72
2023/08/26 10:24:09;;;;;;;10.93;7.43;;;27.00;99.90;;;;;;5013357;28;20205;-69
2023/08/26 10:26:36;;;;;;;9.13;7.50;;;27.10;99.90;;;;;;5014850;28;20267;-71
2023/08/26 10:29:02;;;;;;;8.32;7.30;;;27.20;99.90;;;;;;5017242;28;20622;-71
2023/08/26 10:31:35;;;;;;;9.48;7.80;;;27.70;99.90;;;;;;5005865;28;20284;-71
2023/08/26 10:34:07;;;;;;;11.57;8.35;;;28.00;99.90;;;;;;5026883;28;20208;-70
2023/08/26 10:36:37;;;;;;;9.55;8.10;;;28.20;99.90;;;;;;5022154;28;20208;-71
2023/08/26 10:39:04;;;;;;;10.95;8.32;;;28.50;99.90;;;;;;5012717;28;20232;-72
2023/08/26 10:41:30;;;;;;;10.35;9.23;;;28.90;99.90;;;;;;5024811;28;20220;-71
2023/08/26 10:43:58;;;;;;;11.05;9.13;;;29.40;99.90;;;;;;5023435;28;20209;-71
2023/08/26 10:46:37;;;;;;;10.40;7.15;;;29.50;99.90;;;;;;5017836;28;20238;-70
2023/08/26 10:49:04;;;;;;;11.00;8.43;;;28.60;99.90;;;;;;5029407;28;20270;-70
2023/08/26 10:51:30;;;;;;;11.23;8.18;;;28.40;99.90;;;;;;5010953;28;20204;-73
2023/08/26 10:54:02;;;;;;;9.60;8.10;;;28.30;99.90;;;;;;5021259;28;20251;-70
2023/08/26 10:56:28;;;;;;;9.43;7.57;;;28.00;99.90;;;;;;5017195;28;20568;-72
2023/08/26 10:59:00;;;;;;;12.10;7.13;;;27.90;99.90;;;;;;5014010;28;20242;-72
2023/08/26 11:01:26;;;;;;;9.52;7.65;;;27.90;99.90;;;;;;5022601;28;20622;-71
2023/08/26 11:03:52;;;;;;;7.65;6.28;;;28.10;99.90;;;;;;5007152;28;20182;-69
2023/08/26 11:06:22;;;;;;;11.30;6.68;;;28.30;99.90;;;;;;5019304;28;20204;-72
2023/08/26 11:08:57;;;;;;;8.65;6.80;;;28.20;99.90;;;;;;5009960;28;20205;-68
2023/08/26 11:11:24;;;;;;;10.27;6.72;;;28.10;99.90;;;;;;5010217;28;20205;-72
2023/08/26 11:13:50;;;;;;;8.15;5.78;;;28.30;99.90;;;;;;5004949;28;20224;-71
2023/08/26 11:16:16;;;;;;;6.57;5.28;;;28.20;99.90;;;;;;5024993;28;20181;-71
2023/08/26 11:18:42;;;;;;;10.60;5.80;;;28.40;99.90;;;;;;5027706;28;20586;-68
2023/08/26 11:21:08;;;;;;;9.45;5.93;;;28.30;99.90;;;;;;5030014;28;20215;-71
2023/08/26 11:23:34;;;;;;;10.13;7.20;;;28.20;99.90;;;;;;5029130;28;20593;-70
2023/08/26 11:26:00;;;;;;;7.90;5.03;;;28.00;99.90;;;;;;5029789;28;20208;-71
2023/08/26 11:28:27;;;;;;;7.03;5.60;;;28.10;99.90;;;;;;5028835;28;20660;-70
2023/08/26 11:30:54;;;;;;;7.00;5.20;;;28.00;99.90;;;;;;5025352;28;20181;-72
2023/08/26 11:33:21;;;;;;;8.48;5.53;;;28.20;99.90;;;;;;5026149;28;20303;-71
2023/08/26 11:35:48;;;;;;;7.25;5.00;;;28.30;99.90;;;;;;5020954;28;20219;-69
2023/08/26 11:38:15;;;;;;;8.95;4.15;;;28.30;99.90;;;;;;5025554;28;20204;-71
2023/08/26 11:40:41;;;;;;;4.53;3.80;;;28.30;99.90;;;;;;5021572;28;20619;-71
2023/08/26 11:43:10;;;;;;;5.75;3.90;;;28.20;99.90;;;;;;5023507;28;20253;-72
2023/08/26 11:45:38;;;;;;;6.75;4.70;;;27.90;99.90;;;;;;5019879;28;20223;-72
2023/08/26 11:48:04;;;;;;;5.70;3.80;;;27.80;99.90;;;;;;5022781;28;20236;-73
2023/08/26 11:50:33;;;;;;;7.18;3.88;;;27.70;99.90;;;;;;5019698;28;20208;-73
2023/08/26 11:53:02;;;;;;;6.28;3.83;;;28.00;99.90;;;;;;5021116;28;20754;-72
2023/08/26 11:55:30;;;;;;;6.65;3.80;;;28.10;99.90;;;;;;5019639;28;20907;-71
2023/08/26 11:57:57;;;;;;;5.32;4.38;;;28.00;99.90;;;;;;5028239;28;20227;-72
2023/08/26 12:00:23;;;;;;;5.47;4.03;;;27.80;99.90;;;;;;5046148;28;20221;-71
2023/08/26 12:02:55;;;;;;;4.72;3.65;;;27.60;99.90;;;;;;5027468;28;20218;-73
2023/08/26 12:05:21;;;;;;;7.28;4.68;;;27.40;99.90;;;;;;5044443;28;20216;-72
2023/08/26 12:07:49;;;;;;;6.65;4.38;;;27.40;99.90;;;;;;5026093;28;20216;-68
2023/08/26 12:10:17;;;;;;;8.25;4.75;;;27.40;99.90;;;;;;5026778;28;20209;-70
2023/08/26 12:12:45;;;;;;;6.95;4.43;;;27.40;99.90;;;;;;5022520;28;20192;-69
2023/08/26 12:15:13;;;;;;;5.47;4.13;;;27.40;99.90;;;;;;5043378;28;20200;-70
2023/08/26 12:17:47;;;;;;;6.63;3.55;;;27.60;99.90;;;;;;5023551;28;20212;-70
2023/08/26 12:20:25;;;;;;;6.65;4.53;;;27.80;99.90;;;;;;5020908;28;20212;-70
2023/08/26 12:22:58;;;;;;;4.85;3.88;;;27.90;99.90;;;;;;5020778;28;20680;-70
2023/08/26 12:25:27;;;;;;;5.65;3.70;;;28.00;99.90;;;;;;5021910;28;20176;-72
2023/08/26 12:28:04;;;;;;;4.05;3.63;;;28.10;99.90;;;;;;5025457;28;20200;-70
2023/08/26 12:30:29;;;;;;;4.68;3.60;;;28.00;99.90;;;;;;5023639;28;20216;-70
2023/08/26 12:32:55;;;;;;;5.13;4.00;;;27.90;99.90;;;;;;5024213;28;20224;-71
2023/08/26 12:35:20;;;;;;;5.63;3.97;;;28.10;99.90;;;;;;5025271;28;20212;-70
2023/08/26 12:37:46;;;;;;;3.55;3.00;;;27.90;99.90;;;;;;5032494;28;20236;-67
2023/08/26 12:40:12;;;;;;;8.60;5.47;;;27.70;99.90;;;;;;5032387;28;20687;-70
2023/08/26 12:42:39;;;;;;;5.80;3.80;;;27.60;99.90;;;;;;5032403;28;20256;-71